createdAt,value
2019-06-20T00:00:42.388Z,48.81
2019-06-20T00:03:32.182Z,48.97
2019-06-20T00:06:22.181Z,49.22
2019-06-20T00:09:12.321Z,49.33
2019-06-20T00:12:02.285Z,49.47
2019-06-20T00:14:52.426Z,49.65
2019-06-20T00:17:42.738Z,49.92
2019-06-20T00:20:33.009Z,50.13
2019-06-20T00:23:22.846Z,50.40
2019-06-20T00:26:13.560Z,50.64
2019-06-20T00:29:03.270Z,50.91
2019-06-20T00:31:53.111Z,51.02
2019-06-20T00:34:43.205Z,51.03
2019-06-20T00:37:32.825Z,51.22
2019-06-20T00:40:22.893Z,51.44
2019-06-20T00:43:17.468Z,51.69
2019-06-20T00:46:04.168Z,51.82
2019-06-20T00:48:53.950Z,51.77
2019-06-20T00:51:44.655Z,52.02
2019-06-20T00:54:34.143Z,52.32
2019-06-20T00:57:23.600Z,52.54
2019-06-20T01:00:15.286Z,52.02
2019-06-20T01:03:05.365Z,51.71
2019-06-20T01:05:55.404Z,52.00
2019-06-20T01:08:44.863Z,51.51
2019-06-20T01:11:34.941Z,51.38
2019-06-20T01:14:24.988Z,51.17
2019-06-20T01:17:15.313Z,51.07
2019-06-20T01:20:06.661Z,50.92
2019-06-20T01:22:56.356Z,50.84
2019-06-20T01:25:46.171Z,50.76
2019-06-20T01:28:35.791Z,50.81
2019-06-20T01:31:25.673Z,50.82
2019-06-20T01:34:15.929Z,50.88
2019-06-20T01:37:05.917Z,50.67
2019-06-20T01:39:55.771Z,50.76
2019-06-20T01:42:45.120Z,50.76
2019-06-20T01:45:35.079Z,50.77
2019-06-20T01:48:24.679Z,50.73
2019-06-20T01:51:14.606Z,50.72
2019-06-20T01:54:04.766Z,50.73
2019-06-20T01:56:55.014Z,50.62
2019-06-20T01:59:44.927Z,50.56
2019-06-20T02:02:34.738Z,50.51
2019-06-20T02:05:24.169Z,50.53
2019-06-20T02:08:14.100Z,50.93
2019-06-20T02:11:04.293Z,53.15
2019-06-20T02:14:06.838Z,54.99
2019-06-20T02:16:45.658Z,56.70
2019-06-20T02:19:36.956Z,57.73
2019-06-20T02:22:26.928Z,58.28
2019-06-20T02:25:19.985Z,58.95
2019-06-20T02:28:09.863Z,59.25
2019-06-20T02:30:59.357Z,60.05
2019-06-20T02:33:49.091Z,60.52
2019-06-20T02:36:38.932Z,60.80
2019-06-20T02:39:29.006Z,61.10
2019-06-20T02:42:18.070Z,61.09
2019-06-20T02:45:08.689Z,60.93
2019-06-20T02:47:58.693Z,61.41
2019-06-20T02:50:48.267Z,61.73
2019-06-20T02:53:39.368Z,61.50
2019-06-20T02:56:29.687Z,61.52
2019-06-20T02:59:19.546Z,61.74
2019-06-20T03:02:09.298Z,61.77
2019-06-20T03:04:59.227Z,62.04
2019-06-20T03:07:49.085Z,62.32
2019-06-20T03:10:38.637Z,62.40
2019-06-20T03:13:29.290Z,62.48
2019-06-20T03:16:19.027Z,62.62
2019-06-20T03:19:08.688Z,62.62
2019-06-20T03:21:58.424Z,62.62
2019-06-20T03:24:48.455Z,62.76
2019-06-20T03:27:38.416Z,62.69
2019-06-20T03:30:28.673Z,62.70
2019-06-20T03:33:18.936Z,62.81
2019-06-20T03:36:08.854Z,62.86
2019-06-20T03:38:58.617Z,63.04
2019-06-20T03:41:48.786Z,63.16
2019-06-20T03:44:38.364Z,63.06
2019-06-20T03:47:27.722Z,62.92
2019-06-20T03:50:17.502Z,63.04
2019-06-20T03:53:07.119Z,63.12
2019-06-20T03:55:57.488Z,63.23
2019-06-20T03:58:47.717Z,63.36
2019-06-20T04:01:37.659Z,63.48
2019-06-20T04:04:27.634Z,63.56
2019-06-20T04:07:17.648Z,63.47
2019-06-20T04:10:06.923Z,62.97
2019-06-20T04:12:56.677Z,62.77
2019-06-20T04:15:46.863Z,62.83
2019-06-20T04:18:36.823Z,62.89
2019-06-20T04:21:27.002Z,62.51
2019-06-20T04:24:17.207Z,62.52
2019-06-20T04:27:07.124Z,62.51
2019-06-20T04:29:56.407Z,62.21
2019-06-20T04:32:46.408Z,62.05
2019-06-20T04:35:36.272Z,61.66
2019-06-20T04:38:26.357Z,61.46
2019-06-20T04:41:16.066Z,61.05
2019-06-20T04:44:06.457Z,60.58
2019-06-20T04:47:04.836Z,60.06
2019-06-20T04:49:54.411Z,59.74
2019-06-20T04:52:44.455Z,59.46
2019-06-20T04:55:34.607Z,59.22
2019-06-20T04:58:24.338Z,59.25
2019-06-20T05:01:14.563Z,59.06
2019-06-20T05:04:04.904Z,58.84
2019-06-20T05:07:00.666Z,59.50
2019-06-20T05:09:50.233Z,59.84
2019-06-20T05:12:40.623Z,59.92
2019-06-20T05:15:31.562Z,60.26
2019-06-20T05:18:21.604Z,60.72
2019-06-20T05:21:11.046Z,61.38
2019-06-20T05:24:01.981Z,62.81
2019-06-20T05:26:52.102Z,64.44
2019-06-20T05:29:41.404Z,66.10
2019-06-20T05:32:31.413Z,67.32
2019-06-20T05:35:21.861Z,68.72
2019-06-20T05:38:11.628Z,69.90
2019-06-20T05:41:01.686Z,70.53
2019-06-20T05:43:52.150Z,71.17
2019-06-20T05:46:41.998Z,71.80
2019-06-20T05:49:32.013Z,72.40
2019-06-20T05:52:22.078Z,72.54
2019-06-20T05:55:12.257Z,73.11
2019-06-20T05:58:02.040Z,73.52
2019-06-20T06:00:51.843Z,73.67
2019-06-20T06:03:41.681Z,73.74
2019-06-20T06:06:31.564Z,74.36
2019-06-20T06:09:21.181Z,74.73
2019-06-20T06:12:11.005Z,74.88
2019-06-20T06:15:01.054Z,75.03
2019-06-20T06:17:51.173Z,75.31
2019-06-20T06:20:44.604Z,75.32
2019-06-20T06:23:34.374Z,75.13
2019-06-20T06:26:24.693Z,75.01
2019-06-20T06:29:14.426Z,74.89
2019-06-20T06:32:04.753Z,74.99
2019-06-20T06:34:54.455Z,74.68
2019-06-20T06:37:44.177Z,74.28
2019-06-20T06:40:34.610Z,74.22
2019-06-20T06:43:24.462Z,74.18
2019-06-20T06:46:14.625Z,74.39
2019-06-20T06:49:04.681Z,74.24
2019-06-20T06:51:55.666Z,74.18
2019-06-20T06:54:45.276Z,74.34
2019-06-20T06:57:35.226Z,74.31
2019-06-20T07:00:26.574Z,73.88
2019-06-20T07:03:16.629Z,73.95
2019-06-20T07:06:06.750Z,73.97
2019-06-20T07:08:56.477Z,74.32
2019-06-20T07:11:46.199Z,74.31
2019-06-20T07:14:36.234Z,74.51
2019-06-20T07:17:26.212Z,74.14
2019-06-20T07:20:16.365Z,74.26
2019-06-20T07:23:06.404Z,74.38
2019-06-20T07:25:56.241Z,73.85
2019-06-20T07:28:46.227Z,73.89
2019-06-20T07:31:36.549Z,73.85
2019-06-20T07:34:26.806Z,73.51
2019-06-20T07:37:17.262Z,73.36
2019-06-20T07:40:10.158Z,73.24
2019-06-20T07:42:59.438Z,72.89
2019-06-20T07:46:02.124Z,73.21
2019-06-20T07:48:40.011Z,73.12
2019-06-20T07:51:29.894Z,73.33
2019-06-20T07:54:19.718Z,73.00
2019-06-20T07:57:09.597Z,73.43
2019-06-20T07:59:59.499Z,73.28
2019-06-20T08:02:48.854Z,73.06
2019-06-20T08:05:39.253Z,73.45
2019-06-20T08:08:29.943Z,73.58
2019-06-20T08:11:19.934Z,72.99
2019-06-20T08:14:10.058Z,72.91
2019-06-20T08:16:59.445Z,72.29
2019-06-20T08:19:48.661Z,72.46
2019-06-20T08:22:38.319Z,72.77
2019-06-20T08:25:28.226Z,72.26
2019-06-20T08:28:18.506Z,71.96
2019-06-20T08:31:08.537Z,71.19
2019-06-20T08:33:59.221Z,71.29
2019-06-20T08:36:50.114Z,71.60
2019-06-20T08:39:39.871Z,71.30
2019-06-20T08:42:30.130Z,71.15
2019-06-20T08:45:24.197Z,70.12
2019-06-20T08:48:13.851Z,69.43
2019-06-20T08:51:04.508Z,68.88
2019-06-20T08:53:55.834Z,69.07
2019-06-20T08:56:46.644Z,68.57
2019-06-20T08:59:36.634Z,68.72
2019-06-20T09:02:26.648Z,68.03
2019-06-20T09:05:17.551Z,69.15
2019-06-20T09:08:11.203Z,67.73
2019-06-20T09:10:59.553Z,66.48
2019-06-20T09:13:49.111Z,65.68
2019-06-20T09:16:38.424Z,64.05
2019-06-20T09:19:28.237Z,64.76
2019-06-20T09:22:18.213Z,63.90
2019-06-20T09:25:10.269Z,64.26
2019-06-20T09:28:00.525Z,64.06
2019-06-20T09:30:50.693Z,63.69
2019-06-20T09:33:41.929Z,63.37
2019-06-20T09:36:31.841Z,61.90
2019-06-20T09:39:22.179Z,62.85
2019-06-20T09:42:12.189Z,61.49
2019-06-20T09:45:03.536Z,61.03
2019-06-20T09:47:53.756Z,61.23
2019-06-20T09:50:43.697Z,60.98
2019-06-20T09:53:33.829Z,61.49
2019-06-20T09:56:23.619Z,61.63
2019-06-20T09:59:26.871Z,61.41
2019-06-20T10:02:04.812Z,60.75
2019-06-20T10:04:54.555Z,60.58
2019-06-20T10:07:45.554Z,60.59
2019-06-20T10:10:37.132Z,61.34
2019-06-20T10:13:26.806Z,60.43
2019-06-20T10:16:16.771Z,61.43
2019-06-20T10:19:07.259Z,61.27
2019-06-20T10:21:57.443Z,61.67
2019-06-20T10:24:47.440Z,60.71
2019-06-20T10:27:36.883Z,60.48
2019-06-20T10:30:28.838Z,60.63
2019-06-20T10:33:19.036Z,60.15
2019-06-20T10:36:09.199Z,60.19
2019-06-20T10:38:58.812Z,59.54
2019-06-20T10:41:50.262Z,58.31
2019-06-20T10:44:39.360Z,56.94
2019-06-20T10:47:34.955Z,56.60
2019-06-20T10:50:22.633Z,55.34
2019-06-20T10:53:13.659Z,55.32
2019-06-20T10:56:03.329Z,55.55
2019-06-20T10:58:53.204Z,53.82
2019-06-20T11:01:44.292Z,55.43
2019-06-20T11:04:34.247Z,55.69
2019-06-20T11:07:24.071Z,55.53
2019-06-20T11:10:14.389Z,54.74
2019-06-20T11:13:04.223Z,55.51
2019-06-20T11:15:54.334Z,54.61
2019-06-20T11:18:44.473Z,53.97
2019-06-20T11:21:34.450Z,53.76
2019-06-20T11:24:24.605Z,53.60
2019-06-20T11:27:14.830Z,52.55
2019-06-20T11:30:06.869Z,51.74
2019-06-20T11:32:56.759Z,50.96
2019-06-20T11:35:47.968Z,50.75
2019-06-20T11:38:39.021Z,49.88
2019-06-20T11:41:29.902Z,50.13
2019-06-20T11:44:19.320Z,48.76
2019-06-20T11:47:08.789Z,48.03
2019-06-20T11:49:59.327Z,48.30
2019-06-20T11:52:49.207Z,48.11
2019-06-20T11:55:39.048Z,47.83
2019-06-20T11:58:29.077Z,47.19
2019-06-20T12:01:32.220Z,46.35
2019-06-20T12:04:11.038Z,45.44
2019-06-20T12:07:00.724Z,43.89
2019-06-20T12:09:51.127Z,43.18
2019-06-20T12:12:41.380Z,42.24
2019-06-20T12:15:31.802Z,42.08
2019-06-20T12:18:21.992Z,42.08
2019-06-20T12:21:11.972Z,41.65
2019-06-20T12:24:02.218Z,41.57
2019-06-20T12:26:51.896Z,41.42
2019-06-20T12:29:42.174Z,41.54
2019-06-20T12:32:32.466Z,41.61
2019-06-20T12:35:22.305Z,42.03
2019-06-20T12:38:15.274Z,42.34
2019-06-20T12:41:05.424Z,42.90
2019-06-20T12:43:55.337Z,43.57
2019-06-20T12:46:45.285Z,43.10
2019-06-20T12:49:37.252Z,42.88
2019-06-20T12:52:29.151Z,42.39
2019-06-20T12:55:19.298Z,41.70
2019-06-20T12:58:09.214Z,42.07
2019-06-20T13:00:59.566Z,41.88
2019-06-20T13:03:50.554Z,41.68
2019-06-20T13:06:42.219Z,42.03
2019-06-20T13:09:32.003Z,42.17
2019-06-20T13:12:22.305Z,42.32
2019-06-20T13:15:13.188Z,42.96
2019-06-20T13:18:03.035Z,42.77
2019-06-20T13:20:52.903Z,42.80
2019-06-20T13:23:43.241Z,42.99
2019-06-20T13:26:34.470Z,42.72
2019-06-20T13:29:24.884Z,42.69
2019-06-20T13:32:14.567Z,42.77
2019-06-20T13:35:05.093Z,42.88
2019-06-20T13:37:54.923Z,42.74
2019-06-20T13:40:45.376Z,43.16
2019-06-20T13:43:35.415Z,42.94
2019-06-20T13:46:24.786Z,42.29
2019-06-20T13:49:14.789Z,41.64
2019-06-20T13:52:05.160Z,41.60
2019-06-20T13:54:55.249Z,41.61
2019-06-20T13:57:47.038Z,41.72
2019-06-20T14:00:37.176Z,41.52
2019-06-20T14:03:27.048Z,40.53
2019-06-20T14:06:17.127Z,39.79
2019-06-20T14:09:07.529Z,39.01
2019-06-20T14:11:57.226Z,39.21
2019-06-20T14:14:47.857Z,38.81
2019-06-20T14:17:37.668Z,38.64
2019-06-20T14:20:27.936Z,38.54
2019-06-20T14:23:17.937Z,38.59
2019-06-20T14:26:08.047Z,38.47
2019-06-20T14:28:58.621Z,38.72
2019-06-20T14:31:49.238Z,38.66
2019-06-20T14:34:38.817Z,37.38
2019-06-20T14:37:28.423Z,35.85
2019-06-20T14:40:19.404Z,35.27
2019-06-20T14:43:09.391Z,35.38
2019-06-20T14:45:59.011Z,34.88
2019-06-20T14:48:50.102Z,34.99
2019-06-20T14:51:41.571Z,35.09
2019-06-20T14:54:31.381Z,35.78
2019-06-20T14:57:21.883Z,36.52
2019-06-20T15:00:12.786Z,36.11
2019-06-20T15:03:02.586Z,36.02
2019-06-20T15:05:52.628Z,35.63
2019-06-20T15:08:43.982Z,35.49
2019-06-20T15:11:34.726Z,35.58
2019-06-20T15:14:24.142Z,35.63
2019-06-20T15:17:14.036Z,36.11
2019-06-20T15:20:03.755Z,36.10
2019-06-20T15:22:54.667Z,36.17
2019-06-20T15:25:45.824Z,36.26
2019-06-20T15:28:36.200Z,36.29
2019-06-20T15:31:26.628Z,36.21
2019-06-20T15:34:16.390Z,36.40
2019-06-20T15:37:06.534Z,36.36
2019-06-20T15:39:57.473Z,36.52
2019-06-20T15:42:49.599Z,36.28
2019-06-20T15:45:38.730Z,35.65
2019-06-20T15:48:27.857Z,35.89
2019-06-20T15:51:17.360Z,36.13
2019-06-20T15:54:07.302Z,36.21
2019-06-20T15:56:56.957Z,36.07
2019-06-20T15:59:46.766Z,36.23
2019-06-20T16:02:37.194Z,36.27
2019-06-20T16:05:26.845Z,36.23
2019-06-20T16:08:17.526Z,36.33
2019-06-20T16:11:07.308Z,36.66
2019-06-20T16:13:58.302Z,36.67
2019-06-20T16:16:48.273Z,37.06
2019-06-20T16:19:37.796Z,37.14
2019-06-20T16:22:27.821Z,37.07
2019-06-20T16:25:17.426Z,36.96
2019-06-20T16:28:07.240Z,36.94
2019-06-20T16:31:08.382Z,37.14
2019-06-20T16:33:50.236Z,37.13
2019-06-20T16:36:40.369Z,37.26
2019-06-20T16:39:30.641Z,37.41
2019-06-20T16:42:20.002Z,37.47
2019-06-20T16:45:10.760Z,37.54
2019-06-20T16:48:01.212Z,37.67
2019-06-20T16:50:50.691Z,37.64
2019-06-20T16:53:40.895Z,37.63
2019-06-20T16:56:30.482Z,37.80
2019-06-20T16:59:20.701Z,37.66
2019-06-20T17:02:10.528Z,37.75
2019-06-20T17:05:13.487Z,37.89
2019-06-20T17:08:03.285Z,37.90
2019-06-20T17:10:53.161Z,38.00
2019-06-20T17:13:43.174Z,38.24
2019-06-20T17:16:33.294Z,38.16
2019-06-20T17:19:23.237Z,38.10
2019-06-20T17:22:13.210Z,38.29
2019-06-20T17:25:02.990Z,38.28
2019-06-20T17:27:52.473Z,38.52
2019-06-20T17:30:43.024Z,38.60
2019-06-20T17:33:33.048Z,38.88
2019-06-20T17:36:23.062Z,38.92
2019-06-20T17:39:13.102Z,38.72
2019-06-20T17:42:02.917Z,38.66
2019-06-20T17:44:53.097Z,38.58
2019-06-20T17:47:43.354Z,38.69
2019-06-20T17:50:34.499Z,38.67
2019-06-20T17:53:24.303Z,38.84
2019-06-20T17:56:17.964Z,38.87
2019-06-20T17:59:07.472Z,38.99
2019-06-20T18:01:57.204Z,39.13
2019-06-20T18:04:47.189Z,39.10
2019-06-20T18:07:37.106Z,39.17
2019-06-20T18:10:27.458Z,39.30
2019-06-20T18:13:17.190Z,39.42
2019-06-20T18:16:06.979Z,39.91
2019-06-20T18:18:56.744Z,40.13
2019-06-20T18:21:46.892Z,40.16
2019-06-20T18:24:36.526Z,40.38
2019-06-20T18:27:26.335Z,40.59
2019-06-20T18:30:17.119Z,40.76
2019-06-20T18:33:07.727Z,40.98
2019-06-20T18:35:57.895Z,41.08
2019-06-20T18:38:47.775Z,41.25
2019-06-20T18:41:37.700Z,41.55
2019-06-20T18:44:27.762Z,41.77
2019-06-20T18:47:17.652Z,41.92
2019-06-20T18:50:08.778Z,42.07
2019-06-20T18:52:58.978Z,42.16
2019-06-20T18:55:48.798Z,42.32
2019-06-20T18:58:38.677Z,42.52
2019-06-20T19:01:29.070Z,42.79
2019-06-20T19:04:18.893Z,42.90
2019-06-20T19:07:08.920Z,43.03
2019-06-20T19:09:59.043Z,43.41
2019-06-20T19:12:49.316Z,43.86
2019-06-20T19:15:39.378Z,43.56
2019-06-20T19:18:29.635Z,43.29
2019-06-20T19:21:19.225Z,43.55
2019-06-20T19:24:09.397Z,44.03
2019-06-20T19:27:00.223Z,44.53
2019-06-20T19:29:50.325Z,44.91
2019-06-20T19:32:40.033Z,45.35
2019-06-20T19:35:30.170Z,45.58
2019-06-20T19:38:20.327Z,45.78
2019-06-20T19:41:10.568Z,46.06
2019-06-20T19:44:01.087Z,46.26
2019-06-20T19:46:51.237Z,46.55
2019-06-20T19:49:44.394Z,46.68
2019-06-20T19:52:33.725Z,46.64
2019-06-20T19:55:23.457Z,46.67
2019-06-20T19:58:13.108Z,46.58
2019-06-20T20:01:03.089Z,46.94
2019-06-20T20:03:53.327Z,46.86
2019-06-20T20:06:43.265Z,46.89
2019-06-20T20:09:33.161Z,46.92
2019-06-20T20:12:22.568Z,47.08
2019-06-20T20:15:13.083Z,47.18
2019-06-20T20:18:03.216Z,47.17
2019-06-20T20:20:54.191Z,47.40
2019-06-20T20:23:43.819Z,47.80
2019-06-20T20:26:33.224Z,47.79
2019-06-20T20:29:22.991Z,48.02
2019-06-20T20:32:13.052Z,48.16
2019-06-20T20:35:02.973Z,48.02
2019-06-20T20:37:52.492Z,48.31
2019-06-20T20:40:42.769Z,48.21
2019-06-20T20:43:33.821Z,48.61
2019-06-20T20:46:23.403Z,48.65
2019-06-20T20:49:13.531Z,48.88
2019-06-20T20:52:03.421Z,48.88
2019-06-20T20:54:53.477Z,49.09
2019-06-20T20:57:44.121Z,49.44
2019-06-20T21:00:45.898Z,49.83
2019-06-20T21:03:35.190Z,50.60
2019-06-20T21:06:25.337Z,51.99
2019-06-20T21:09:15.506Z,53.11
2019-06-20T21:12:05.855Z,53.99
2019-06-20T21:14:55.739Z,54.81
2019-06-20T21:17:46.035Z,55.61
2019-06-20T21:20:35.391Z,56.18
2019-06-20T21:23:25.175Z,56.88
2019-06-20T21:26:16.091Z,57.18
2019-06-20T21:29:06.161Z,57.62
2019-06-20T21:31:56.306Z,58.03
2019-06-20T21:34:46.090Z,58.32
2019-06-20T21:37:36.215Z,58.52
2019-06-20T21:40:26.034Z,58.41
2019-06-20T21:43:15.702Z,58.91
2019-06-20T21:46:06.987Z,58.80
2019-06-20T21:48:57.306Z,58.86
2019-06-20T21:51:47.173Z,58.97
2019-06-20T21:54:36.560Z,58.82
2019-06-20T21:57:26.462Z,58.93
2019-06-20T22:00:25.489Z,58.97
2019-06-20T22:03:16.784Z,59.09
2019-06-20T22:06:20.207Z,59.23
2019-06-20T22:08:58.506Z,59.13
2019-06-20T22:11:48.130Z,59.25
2019-06-20T22:14:38.261Z,59.00
2019-06-20T22:17:27.685Z,59.05
2019-06-20T22:20:19.621Z,59.08
2019-06-20T22:23:09.819Z,59.10
2019-06-20T22:26:00.045Z,59.12
2019-06-20T22:28:50.079Z,59.19
2019-06-20T22:31:39.583Z,59.18
2019-06-20T22:34:29.753Z,59.26
2019-06-20T22:37:18.912Z,59.28
2019-06-20T22:40:11.250Z,59.25
2019-06-20T22:43:01.793Z,59.18
2019-06-20T22:45:51.886Z,59.28
2019-06-20T22:48:41.703Z,59.26
2019-06-20T22:51:31.679Z,59.25
2019-06-20T22:54:21.208Z,59.31
2019-06-20T22:57:11.084Z,59.31
2019-06-20T23:00:00.534Z,59.37
2019-06-20T23:02:50.559Z,59.33
2019-06-20T23:05:40.872Z,59.41
2019-06-20T23:08:30.897Z,59.35
2019-06-20T23:11:20.993Z,59.42
2019-06-20T23:14:10.639Z,59.36
2019-06-20T23:17:00.421Z,59.45
2019-06-20T23:19:50.115Z,59.46
2019-06-20T23:22:40.168Z,59.58
2019-06-20T23:25:29.777Z,59.58
2019-06-20T23:28:19.346Z,59.64
2019-06-20T23:31:09.224Z,59.78
2019-06-20T23:33:59.202Z,59.88
2019-06-20T23:36:51.208Z,59.87
2019-06-20T23:39:40.938Z,59.93
2019-06-20T23:42:30.783Z,60.09
2019-06-20T23:45:21.188Z,60.19
2019-06-20T23:48:11.246Z,60.22
2019-06-20T23:51:01.660Z,60.27
2019-06-20T23:53:51.476Z,60.30
2019-06-20T23:56:41.429Z,60.22
2019-06-20T23:59:31.473Z,60.50
